sensor_id;sensor_type;location;lat;lon;timestamp;P1;durP1;ratioP1;P2;durP2;ratioP2
27576;SDS011;15011;53.380;10.034;2023-09-30T00:04:08;7.00;;;3.07;;
27576;SDS011;15011;53.380;10.034;2023-09-30T00:14:09;10.77;;;2.80;;
27576;SDS011;15011;53.380;10.034;2023-09-30T00:19:09;10.53;;;4.93;;
27576;SDS011;15011;53.380;10.034;2023-09-30T00:24:10;12.70;;;3.55;;
27576;SDS011;15011;53.380;10.034;2023-09-30T00:29:10;9.60;;;3.53;;
27576;SDS011;15011;53.380;10.034;2023-09-30T00:34:11;7.67;;;3.10;;
27576;SDS011;15011;53.380;10.034;2023-09-30T00:39:11;13.33;;;2.97;;
27576;SDS011;15011;53.380;10.034;2023-09-30T00:44:12;10.30;;;3.30;;
27576;SDS011;15011;53.380;10.034;2023-09-30T00:49:13;10.07;;;2.87;;
27576;SDS011;15011;53.380;10.034;2023-09-30T00:59:14;9.13;;;3.50;;
27576;SDS011;15011;53.380;10.034;2023-09-30T01:04:15;8.98;;;3.15;;
27576;SDS011;15011;53.380;10.034;2023-09-30T01:09:15;8.73;;;2.93;;
27576;SDS011;15011;53.380;10.034;2023-09-30T01:19:35;10.30;;;2.83;;
27576;SDS011;15011;53.380;10.034;2023-09-30T01:24:39;7.30;;;2.40;;
27576;SDS011;15011;53.380;10.034;2023-09-30T01:29:40;10.65;;;3.20;;
27576;SDS011;15011;53.380;10.034;2023-09-30T01:34:41;11.35;;;2.38;;
27576;SDS011;15011;53.380;10.034;2023-09-30T01:39:41;15.52;;;3.72;;
27576;SDS011;15011;53.380;10.034;2023-09-30T01:44:44;9.68;;;3.25;;
27576;SDS011;15011;53.380;10.034;2023-09-30T01:49:44;13.80;;;2.97;;
27576;SDS011;15011;53.380;10.034;2023-09-30T01:54:44;10.17;;;3.17;;
27576;SDS011;15011;53.380;10.034;2023-09-30T01:59:45;7.80;;;3.10;;
27576;SDS011;15011;53.380;10.034;2023-09-30T02:04:45;10.87;;;3.30;;
27576;SDS011;15011;53.380;10.034;2023-09-30T02:09:46;11.97;;;3.07;;
27576;SDS011;15011;53.380;10.034;2023-09-30T02:14:46;12.43;;;3.80;;
27576;SDS011;15011;53.380;10.034;2023-09-30T02:19:47;16.55;;;3.85;;
27576;SDS011;15011;53.380;10.034;2023-09-30T02:24:47;12.90;;;3.60;;
27576;SDS011;15011;53.380;10.034;2023-09-30T02:29:48;9.35;;;2.85;;
27576;SDS011;15011;53.380;10.034;2023-09-30T02:34:49;12.03;;;3.50;;
27576;SDS011;15011;53.380;10.034;2023-09-30T02:39:50;10.95;;;3.50;;
27576;SDS011;15011;53.380;10.034;2023-09-30T02:44:51;12.75;;;4.57;;
27576;SDS011;15011;53.380;10.034;2023-09-30T02:49:51;9.67;;;3.53;;
27576;SDS011;15011;53.380;10.034;2023-09-30T02:54:52;13.45;;;4.13;;
27576;SDS011;15011;53.380;10.034;2023-09-30T02:59:53;10.00;;;3.53;;
27576;SDS011;15011;53.380;10.034;2023-09-30T03:09:58;8.90;;;3.30;;
27576;SDS011;15011;53.380;10.034;2023-09-30T03:15:00;12.65;;;3.92;;
27576;SDS011;15011;53.380;10.034;2023-09-30T03:20:04;16.27;;;3.80;;
27576;SDS011;15011;53.380;10.034;2023-09-30T03:25:12;17.15;;;4.07;;
27576;SDS011;15011;53.380;10.034;2023-09-30T03:30:16;9.88;;;3.75;;
27576;SDS011;15011;53.380;10.034;2023-09-30T03:35:17;11.50;;;3.60;;
27576;SDS011;15011;53.380;10.034;2023-09-30T03:40:17;15.93;;;4.17;;
27576;SDS011;15011;53.380;10.034;2023-09-30T03:45:27;14.35;;;5.53;;
27576;SDS011;15011;53.380;10.034;2023-09-30T03:50:29;13.70;;;3.77;;
27576;SDS011;15011;53.380;10.034;2023-09-30T03:55:30;13.57;;;3.70;;
27576;SDS011;15011;53.380;10.034;2023-09-30T04:00:32;15.40;;;3.67;;
27576;SDS011;15011;53.380;10.034;2023-09-30T04:05:32;13.95;;;3.78;;
27576;SDS011;15011;53.380;10.034;2023-09-30T04:10:36;12.30;;;3.55;;
27576;SDS011;15011;53.380;10.034;2023-09-30T04:15:37;10.30;;;3.70;;
27576;SDS011;15011;53.380;10.034;2023-09-30T04:20:37;12.95;;;3.50;;
27576;SDS011;15011;53.380;10.034;2023-09-30T04:25:39;11.80;;;3.92;;
27576;SDS011;15011;53.380;10.034;2023-09-30T04:30:40;14.98;;;4.38;;
27576;SDS011;15011;53.380;10.034;2023-09-30T04:35:41;13.77;;;4.00;;
27576;SDS011;15011;53.380;10.034;2023-09-30T04:40:41;12.93;;;3.83;;
27576;SDS011;15011;53.380;10.034;2023-09-30T04:45:44;10.77;;;3.67;;
27576;SDS011;15011;53.380;10.034;2023-09-30T04:50:45;15.40;;;4.25;;
27576;SDS011;15011;53.380;10.034;2023-09-30T04:55:45;10.37;;;3.80;;
27576;SDS011;15011;53.380;10.034;2023-09-30T05:00:46;16.02;;;4.00;;
27576;SDS011;15011;53.380;10.034;2023-09-30T05:05:46;10.90;;;4.17;;
27576;SDS011;15011;53.380;10.034;2023-09-30T05:10:46;17.40;;;4.25;;
27576;SDS011;15011;53.380;10.034;2023-09-30T05:15:48;14.10;;;4.03;;
27576;SDS011;15011;53.380;10.034;2023-09-30T05:20:50;12.52;;;4.35;;
27576;SDS011;15011;53.380;10.034;2023-09-30T05:25:50;11.30;;;4.43;;
27576;SDS011;15011;53.380;10.034;2023-09-30T05:30:51;10.52;;;3.33;;
27576;SDS011;15011;53.380;10.034;2023-09-30T05:35:51;13.18;;;3.75;;
27576;SDS011;15011;53.380;10.034;2023-09-30T05:40:52;14.77;;;3.70;;
27576;SDS011;15011;53.380;10.034;2023-09-30T05:45:54;10.88;;;3.72;;
27576;SDS011;15011;53.380;10.034;2023-09-30T05:50:55;12.70;;;5.03;;
27576;SDS011;15011;53.380;10.034;2023-09-30T05:55:56;15.85;;;4.93;;
27576;SDS011;15011;53.380;10.034;2023-09-30T06:00:57;12.10;;;4.00;;
27576;SDS011;15011;53.380;10.034;2023-09-30T06:05:57;14.60;;;3.80;;
27576;SDS011;15011;53.380;10.034;2023-09-30T06:11:00;9.88;;;3.47;;
27576;SDS011;15011;53.380;10.034;2023-09-30T06:16:00;11.93;;;4.10;;
27576;SDS011;15011;53.380;10.034;2023-09-30T06:21:02;10.57;;;3.50;;
27576;SDS011;15011;53.380;10.034;2023-09-30T06:31:05;10.93;;;4.30;;
27576;SDS011;15011;53.380;10.034;2023-09-30T06:36:09;13.80;;;3.75;;
27576;SDS011;15011;53.380;10.034;2023-09-30T06:41:15;13.25;;;3.80;;
27576;SDS011;15011;53.380;10.034;2023-09-30T06:46:16;10.15;;;3.90;;
27576;SDS011;15011;53.380;10.034;2023-09-30T06:51:16;12.40;;;3.88;;
27576;SDS011;15011;53.380;10.034;2023-09-30T06:56:17;11.40;;;3.42;;
27576;SDS011;15011;53.380;10.034;2023-09-30T07:01:18;9.00;;;3.22;;
27576;SDS011;15011;53.380;10.034;2023-09-30T07:06:22;8.77;;;3.63;;
27576;SDS011;15011;53.380;10.034;2023-09-30T07:11:27;9.52;;;3.60;;
27576;SDS011;15011;53.380;10.034;2023-09-30T07:16:33;9.82;;;3.92;;
27576;SDS011;15011;53.380;10.034;2023-09-30T07:21:35;11.80;;;3.53;;
27576;SDS011;15011;53.380;10.034;2023-09-30T07:26:37;9.20;;;3.30;;
27576;SDS011;15011;53.380;10.034;2023-09-30T07:31:38;6.63;;;3.13;;
27576;SDS011;15011;53.380;10.034;2023-09-30T07:36:39;12.90;;;4.35;;
27576;SDS011;15011;53.380;10.034;2023-09-30T07:41:39;12.63;;;4.73;;
27576;SDS011;15011;53.380;10.034;2023-09-30T07:46:40;9.30;;;2.85;;
27576;SDS011;15011;53.380;10.034;2023-09-30T07:51:40;6.68;;;3.00;;
27576;SDS011;15011;53.380;10.034;2023-09-30T07:56:41;10.18;;;3.20;;
27576;SDS011;15011;53.380;10.034;2023-09-30T08:01:41;10.20;;;3.50;;
27576;SDS011;15011;53.380;10.034;2023-09-30T08:06:42;9.48;;;3.65;;
27576;SDS011;15011;53.380;10.034;2023-09-30T08:11:42;8.02;;;3.03;;
27576;SDS011;15011;53.380;10.034;2023-09-30T08:16:43;12.00;;;3.60;;
27576;SDS011;15011;53.380;10.034;2023-09-30T08:21:44;8.68;;;2.72;;
27576;SDS011;15011;53.380;10.034;2023-09-30T08:26:45;6.45;;;2.20;;
27576;SDS011;15011;53.380;10.034;2023-09-30T08:31:45;9.82;;;3.20;;
27576;SDS011;15011;53.380;10.034;2023-09-30T08:36:46;9.63;;;2.70;;
27576;SDS011;15011;53.380;10.034;2023-09-30T08:41:46;11.40;;;2.70;;
27576;SDS011;15011;53.380;10.034;2023-09-30T08:51:48;9.97;;;2.43;;
27576;SDS011;15011;53.380;10.034;2023-09-30T08:56:49;8.57;;;2.78;;
27576;SDS011;15011;53.380;10.034;2023-09-30T09:01:50;6.55;;;2.17;;
27576;SDS011;15011;53.380;10.034;2023-09-30T09:06:51;9.45;;;2.97;;
27576;SDS011;15011;53.380;10.034;2023-09-30T09:11:56;9.45;;;2.70;;
27576;SDS011;15011;53.380;10.034;2023-09-30T09:16:57;12.13;;;2.72;;
27576;SDS011;15011;53.380;10.034;2023-09-30T09:21:59;6.30;;;2.20;;
27576;SDS011;15011;53.380;10.034;2023-09-30T09:27:06;9.32;;;1.92;;
27576;SDS011;15011;53.380;10.034;2023-09-30T09:32:14;7.35;;;3.03;;
27576;SDS011;15011;53.380;10.034;2023-09-30T09:37:19;5.50;;;2.08;;
27576;SDS011;15011;53.380;10.034;2023-09-30T09:42:30;8.20;;;2.70;;
27576;SDS011;15011;53.380;10.034;2023-09-30T09:47:31;8.52;;;2.28;;
27576;SDS011;15011;53.380;10.034;2023-09-30T09:52:34;10.15;;;1.95;;
27576;SDS011;15011;53.380;10.034;2023-09-30T09:57:34;9.00;;;2.60;;
27576;SDS011;15011;53.380;10.034;2023-09-30T10:02:36;8.30;;;2.22;;
27576;SDS011;15011;53.380;10.034;2023-09-30T10:07:37;7.47;;;2.42;;
27576;SDS011;15011;53.380;10.034;2023-09-30T10:12:39;8.48;;;1.95;;
27576;SDS011;15011;53.380;10.034;2023-09-30T10:39:01;7.13;;;1.70;;
27576;SDS011;15011;53.380;10.034;2023-09-30T10:49:39;7.30;;;1.70;;
27576;SDS011;15011;53.380;10.034;2023-09-30T10:59:45;7.13;;;1.60;;
27576;SDS011;15011;53.380;10.034;2023-09-30T11:04:46;5.38;;;1.60;;
27576;SDS011;15011;53.380;10.034;2023-09-30T11:09:47;5.05;;;1.60;;
27576;SDS011;15011;53.380;10.034;2023-09-30T11:14:47;7.50;;;1.83;;
27576;SDS011;15011;53.380;10.034;2023-09-30T11:19:59;5.50;;;1.63;;
27576;SDS011;15011;53.380;10.034;2023-09-30T11:25:00;6.40;;;1.88;;
27576;SDS011;15011;53.380;10.034;2023-09-30T11:30:02;5.57;;;1.40;;
27576;SDS011;15011;53.380;10.034;2023-09-30T11:35:03;6.88;;;1.40;;
27576;SDS011;15011;53.380;10.034;2023-09-30T11:40:13;3.33;;;1.50;;
27576;SDS011;15011;53.380;10.034;2023-09-30T11:45:20;6.25;;;1.60;;
27576;SDS011;15011;53.380;10.034;2023-09-30T11:50:24;6.28;;;1.63;;
27576;SDS011;15011;53.380;10.034;2023-09-30T11:55:24;7.63;;;1.53;;
27576;SDS011;15011;53.380;10.034;2023-09-30T12:00:27;4.00;;;1.30;;
27576;SDS011;15011;53.380;10.034;2023-09-30T12:05:29;3.53;;;1.20;;
27576;SDS011;15011;53.380;10.034;2023-09-30T12:10:30;6.32;;;1.45;;
27576;SDS011;15011;53.380;10.034;2023-09-30T12:15:31;4.85;;;1.20;;
27576;SDS011;15011;53.380;10.034;2023-09-30T12:20:32;5.47;;;0.90;;
27576;SDS011;15011;53.380;10.034;2023-09-30T12:25:33;3.15;;;1.27;;
27576;SDS011;15011;53.380;10.034;2023-09-30T12:30:33;2.37;;;1.07;;
27576;SDS011;15011;53.380;10.034;2023-09-30T12:35:34;3.90;;;1.30;;
27576;SDS011;15011;53.380;10.034;2023-09-30T12:40:35;3.67;;;1.27;;
27576;SDS011;15011;53.380;10.034;2023-09-30T12:45:36;3.33;;;1.27;;
27576;SDS011;15011;53.380;10.034;2023-09-30T12:50:38;3.88;;;1.20;;
27576;SDS011;15011;53.380;10.034;2023-09-30T12:55:39;4.20;;;1.00;;
27576;SDS011;15011;53.380;10.034;2023-09-30T13:00:39;4.00;;;1.00;;
27576;SDS011;15011;53.380;10.034;2023-09-30T13:05:40;4.53;;;1.23;;
27576;SDS011;15011;53.380;10.034;2023-09-30T13:10:40;3.47;;;1.23;;
27576;SDS011;15011;53.380;10.034;2023-09-30T13:15:41;3.83;;;1.00;;
27576;SDS011;15011;53.380;10.034;2023-09-30T13:20:41;4.40;;;0.83;;
27576;SDS011;15011;53.380;10.034;2023-09-30T13:25:41;5.00;;;0.95;;
27576;SDS011;15011;53.380;10.034;2023-09-30T13:30:42;2.25;;;1.00;;
27576;SDS011;15011;53.380;10.034;2023-09-30T13:35:45;3.72;;;1.05;;
27576;SDS011;15011;53.380;10.034;2023-09-30T13:40:45;3.13;;;1.00;;
27576;SDS011;15011;53.380;10.034;2023-09-30T13:45:46;2.92;;;0.82;;
27576;SDS011;15011;53.380;10.034;2023-09-30T13:50:46;5.63;;;1.17;;
27576;SDS011;15011;53.380;10.034;2023-09-30T13:55:47;3.85;;;1.05;;
27576;SDS011;15011;53.380;10.034;2023-09-30T14:00:47;2.27;;;0.90;;
27576;SDS011;15011;53.380;10.034;2023-09-30T14:05:48;2.92;;;1.10;;
27576;SDS011;15011;53.380;10.034;2023-09-30T14:10:49;5.13;;;1.42;;
27576;SDS011;15011;53.380;10.034;2023-09-30T14:15:51;4.00;;;0.95;;
27576;SDS011;15011;53.380;10.034;2023-09-30T14:20:52;3.35;;;1.05;;
27576;SDS011;15011;53.380;10.034;2023-09-30T14:25:53;5.83;;;1.00;;
27576;SDS011;15011;53.380;10.034;2023-09-30T14:30:55;5.85;;;1.60;;
27576;SDS011;15011;53.380;10.034;2023-09-30T14:35:56;1.67;;;0.70;;
27576;SDS011;15011;53.380;10.034;2023-09-30T14:40:56;7.28;;;1.38;;
27576;SDS011;15011;53.380;10.034;2023-09-30T14:46:02;3.77;;;1.13;;
27576;SDS011;15011;53.380;10.034;2023-09-30T14:51:03;6.00;;;2.28;;
27576;SDS011;15011;53.380;10.034;2023-09-30T14:56:13;2.58;;;1.00;;
27576;SDS011;15011;53.380;10.034;2023-09-30T15:01:15;2.83;;;1.10;;
27576;SDS011;15011;53.380;10.034;2023-09-30T15:06:15;3.73;;;1.60;;
27576;SDS011;15011;53.380;10.034;2023-09-30T15:11:15;4.80;;;1.10;;
27576;SDS011;15011;53.380;10.034;2023-09-30T15:16:19;2.80;;;1.33;;
27576;SDS011;15011;53.380;10.034;2023-09-30T15:21:20;3.15;;;1.00;;
27576;SDS011;15011;53.380;10.034;2023-09-30T15:26:21;3.40;;;1.30;;
27576;SDS011;15011;53.380;10.034;2023-09-30T15:31:26;3.97;;;1.00;;
27576;SDS011;15011;53.380;10.034;2023-09-30T15:36:30;3.35;;;1.05;;
27576;SDS011;15011;53.380;10.034;2023-09-30T15:41:30;3.58;;;1.20;;
27576;SDS011;15011;53.380;10.034;2023-09-30T15:46:30;3.70;;;1.10;;
27576;SDS011;15011;53.380;10.034;2023-09-30T15:51:31;4.20;;;1.20;;
27576;SDS011;15011;53.380;10.034;2023-09-30T15:56:32;6.25;;;1.25;;
27576;SDS011;15011;53.380;10.034;2023-09-30T16:01:33;2.63;;;1.02;;
27576;SDS011;15011;53.380;10.034;2023-09-30T16:06:33;2.83;;;0.90;;
27576;SDS011;15011;53.380;10.034;2023-09-30T16:11:34;3.70;;;1.40;;
27576;SDS011;15011;53.380;10.034;2023-09-30T16:16:34;2.97;;;1.30;;
27576;SDS011;15011;53.380;10.034;2023-09-30T16:21:35;3.33;;;1.80;;
27576;SDS011;15011;53.380;10.034;2023-09-30T16:26:35;5.72;;;2.20;;
27576;SDS011;15011;53.380;10.034;2023-09-30T16:31:36;5.50;;;3.80;;
27576;SDS011;15011;53.380;10.034;2023-09-30T16:36:36;5.10;;;2.75;;
27576;SDS011;15011;53.380;10.034;2023-09-30T16:41:37;3.08;;;1.80;;
27576;SDS011;15011;53.380;10.034;2023-09-30T16:46:38;4.22;;;2.00;;
27576;SDS011;15011;53.380;10.034;2023-09-30T16:51:38;5.47;;;1.70;;
27576;SDS011;15011;53.380;10.034;2023-09-30T16:56:39;5.40;;;1.70;;
27576;SDS011;15011;53.380;10.034;2023-09-30T17:01:39;3.13;;;1.27;;
27576;SDS011;15011;53.380;10.034;2023-09-30T17:06:40;3.70;;;1.63;;
27576;SDS011;15011;53.380;10.034;2023-09-30T17:11:41;4.97;;;1.80;;
27576;SDS011;15011;53.380;10.034;2023-09-30T17:16:41;3.90;;;1.47;;
27576;SDS011;15011;53.380;10.034;2023-09-30T17:21:42;3.85;;;1.40;;
27576;SDS011;15011;53.380;10.034;2023-09-30T17:26:43;4.20;;;1.70;;
27576;SDS011;15011;53.380;10.034;2023-09-30T17:31:43;3.93;;;2.00;;
27576;SDS011;15011;53.380;10.034;2023-09-30T17:36:44;3.20;;;1.50;;
27576;SDS011;15011;53.380;10.034;2023-09-30T17:41:44;7.60;;;1.90;;
27576;SDS011;15011;53.380;10.034;2023-09-30T17:46:45;4.63;;;1.83;;
27576;SDS011;15011;53.380;10.034;2023-09-30T17:51:45;3.80;;;1.70;;
27576;SDS011;15011;53.380;10.034;2023-09-30T17:56:48;5.90;;;2.10;;
27576;SDS011;15011;53.380;10.034;2023-09-30T18:01:49;3.55;;;1.90;;
27576;SDS011;15011;53.380;10.034;2023-09-30T18:06:49;4.23;;;1.60;;
27576;SDS011;15011;53.380;10.034;2023-09-30T18:11:50;3.80;;;2.15;;
27576;SDS011;15011;53.380;10.034;2023-09-30T18:16:51;4.68;;;2.50;;
27576;SDS011;15011;53.380;10.034;2023-09-30T18:21:51;4.47;;;2.27;;
27576;SDS011;15011;53.380;10.034;2023-09-30T18:26:52;5.00;;;2.07;;
27576;SDS011;15011;53.380;10.034;2023-09-30T18:31:52;4.50;;;2.40;;
27576;SDS011;15011;53.380;10.034;2023-09-30T18:36:53;6.43;;;2.77;;
27576;SDS011;15011;53.380;10.034;2023-09-30T18:41:53;6.27;;;2.53;;
27576;SDS011;15011;53.380;10.034;2023-09-30T18:46:54;7.70;;;4.38;;
27576;SDS011;15011;53.380;10.034;2023-09-30T18:51:54;5.77;;;3.00;;
27576;SDS011;15011;53.380;10.034;2023-09-30T18:56:55;7.50;;;3.23;;
27576;SDS011;15011;53.380;10.034;2023-09-30T19:01:56;5.93;;;3.88;;
27576;SDS011;15011;53.380;10.034;2023-09-30T19:06:56;5.67;;;2.90;;
27576;SDS011;15011;53.380;10.034;2023-09-30T19:16:58;4.75;;;2.90;;
27576;SDS011;15011;53.380;10.034;2023-09-30T19:26:59;4.53;;;2.80;;
27576;SDS011;15011;53.380;10.034;2023-09-30T19:31:59;6.00;;;3.00;;
27576;SDS011;15011;53.380;10.034;2023-09-30T19:42:01;4.78;;;2.80;;
27576;SDS011;15011;53.380;10.034;2023-09-30T19:47:01;7.83;;;2.80;;
27576;SDS011;15011;53.380;10.034;2023-09-30T19:57:02;5.82;;;2.55;;
27576;SDS011;15011;53.380;10.034;2023-09-30T20:02:04;5.38;;;3.35;;
27576;SDS011;15011;53.380;10.034;2023-09-30T20:12:06;3.63;;;2.78;;
27576;SDS011;15011;53.380;10.034;2023-09-30T20:17:08;4.82;;;2.90;;
27576;SDS011;15011;53.380;10.034;2023-09-30T20:32:10;6.10;;;3.05;;
27576;SDS011;15011;53.380;10.034;2023-09-30T20:42:11;7.50;;;3.25;;
27576;SDS011;15011;53.380;10.034;2023-09-30T20:47:11;4.50;;;3.07;;
27576;SDS011;15011;53.380;10.034;2023-09-30T21:02:13;5.32;;;2.88;;
27576;SDS011;15011;53.380;10.034;2023-09-30T21:07:14;6.33;;;3.20;;
27576;SDS011;15011;53.380;10.034;2023-09-30T21:12:14;5.63;;;2.87;;
27576;SDS011;15011;53.380;10.034;2023-09-30T21:17:15;3.70;;;2.57;;
27576;SDS011;15011;53.380;10.034;2023-09-30T21:22:15;5.85;;;2.55;;
27576;SDS011;15011;53.380;10.034;2023-09-30T21:32:16;7.03;;;3.70;;
27576;SDS011;15011;53.380;10.034;2023-09-30T21:47:17;6.57;;;3.37;;
27576;SDS011;15011;53.380;10.034;2023-09-30T22:02:19;6.15;;;2.72;;
27576;SDS011;15011;53.380;10.034;2023-09-30T22:12:24;7.78;;;4.13;;
27576;SDS011;15011;53.380;10.034;2023-09-30T22:22:24;6.60;;;3.23;;
27576;SDS011;15011;53.380;10.034;2023-09-30T22:32:26;3.53;;;2.83;;
27576;SDS011;15011;53.380;10.034;2023-09-30T22:42:27;5.63;;;3.10;;
27576;SDS011;15011;53.380;10.034;2023-09-30T22:47:40;5.85;;;2.50;;
27576;SDS011;15011;53.380;10.034;2023-09-30T22:52:41;5.78;;;3.40;;
27576;SDS011;15011;53.380;10.034;2023-09-30T22:57:43;7.53;;;3.40;;
27576;SDS011;15011;53.380;10.034;2023-09-30T23:02:45;4.85;;;3.35;;
27576;SDS011;15011;53.380;10.034;2023-09-30T23:07:47;6.13;;;3.40;;
27576;SDS011;15011;53.380;10.034;2023-09-30T23:12:47;6.25;;;3.42;;
27576;SDS011;15011;53.380;10.034;2023-09-30T23:17:48;4.53;;;3.35;;
27576;SDS011;15011;53.380;10.034;2023-09-30T23:22:50;4.55;;;3.42;;
27576;SDS011;15011;53.380;10.034;2023-09-30T23:27:55;6.20;;;3.72;;
27576;SDS011;15011;53.380;10.034;2023-09-30T23:32:56;6.00;;;4.00;;
27576;SDS011;15011;53.380;10.034;2023-09-30T23:37:58;6.65;;;4.00;;
27576;SDS011;15011;53.380;10.034;2023-09-30T23:43:01;7.20;;;4.63;;
27576;SDS011;15011;53.380;10.034;2023-09-30T23:48:11;4.78;;;3.13;;
27576;SDS011;15011;53.380;10.034;2023-09-30T23:53:12;6.38;;;3.25;;
27576;SDS011;15011;53.380;10.034;2023-09-30T23:58:13;7.15;;;3.75;;
